Mashantucket, Connecticut
Current Conditions -  °F | °C
As of 6:56 AM on Sunday 21 Dec 2014 (Local Time) from KGON Reporting Station
Haze Haze  
Wind Chill: 24°   Ceiling: 2000
Heat Index: 32°   Visibility: 6mi
Dew Point: 32°   Wind: 9mph
Humidity: 100%   Direction: 10°N
Pressure: 30.26"   Gusts: NA
Location:  41.47°N, 71.96°W
Report Text: KGON 211156Z 01008KT 6SM BR FEW011 OVC020 00/00 A3026 RMK AO2 SNE39 SLP247 P0000 60000 T00000000 10006 20000 51006
Loading
Personal Weather Stations






























Interactive Weather Map New forecast layout! Learn more

10-Day Weather Forecast

Advertisements
Track Severe Weather on mobile